Cielo Di Vaiano — D5AQ2 — position and weather

sailwx.info

Track history (hours):
 
Tides and Currents Weather Stations Pressure Air Temp Water Temp Dewpoint Dewpoint Depression Visibility Wind Speed Wind Dir Waves Ship Positions

Cielo Di Vaiano

Last reported at 2014-Nov-20 23:30 UTC. Time now 2014-Nov-22 03:07 UTC.
Position N 32°36' W 017°37'.

Length 183 m; draft 10.1 m.

Type: Ship (hazmat cat A). MMSI: 636015421.

Date/timePositionNaut miles runAvg speedWind from/ knotsBaromVisibWave heightAir tempDewpointWater temp
2014-Nov-20 23:30N 32°36' W 017°37'1111.7
2014-Nov-20 22:33N 32°47' W 017°32'  
2014-Nov-16 13:32N 49°59' W 002°56'1210.8
2014-Nov-16 12:27N 50°03' W 002°39'6312.6
2014-Nov-16 07:27N 50°19' W 001°04'1212.9
2014-Nov-16 06:32N 50°22' W 000°46'2512.3
2014-Nov-16 04:32N 50°29' W 000°09'1211.7
2014-Nov-16 03:32N 50°32' E 000°09'1111.6
2014-Nov-16 02:34N 50°35' E 000°26'1211.9
2014-Nov-16 01:34N 50°40' E 000°43'1212.5
2014-Nov-16 00:34N 50°46' E 000°60'1313.0
2014-Nov-15 23:33N 50°54' E 001°17'1313.1
2014-Nov-15 22:34N 51°04' E 001°31'1211.9
2014-Nov-15 21:34N 51°12' E 001°44'1111.5
2014-Nov-15 20:34N 51°22' E 001°53'1111.2
2014-Nov-15 19:34N 51°31' E 002°03'1111.0
2014-Nov-15 18:31N 51°39' E 002°16'27411.4
2014-Nov-14 18:33N 55°29' E 006°28'2211.1
2014-Nov-14 16:33N 55°50' E 006°43'1211.8
2014-Nov-14 15:34N 56°01' E 006°51'8512.1
2014-Nov-14 08:33N 57°20' E 007°46'8812.5
2014-Nov-14 01:33N 57°50' E 010°20'1313.0
2014-Nov-14 00:33N 57°51' E 010°44'1312.7
2014-Nov-13 23:33N 57°41' E 011°01'1313.1
2014-Nov-13 22:33N 57°32' E 011°18'1312.7
2014-Nov-13 21:33N 57°21' E 011°30'1313.2
2014-Nov-13 20:33N 57°09' E 011°39'4510.3
2014-Nov-13 16:09N 56°26' E 011°13'810.7
2014-Nov-13 15:24N 56°19' E 011°06'9813.3
2014-Nov-13 08:04N 54°42' E 010°52'2413.9
2014-Nov-13 06:19N 54°31' E 011°30'1013.1
2014-Nov-13 05:31N 54°27' E 011°46'1512.0
2014-Nov-13 04:15N 54°29' E 012°12'7512.1
2014-Nov-12 22:05N 55°05' E 014°06'712.6
2014-Nov-12 21:30N 55°11' E 014°13'1212.8
2014-Nov-12 20:33N 55°20' E 014°27'1212.1
2014-Nov-12 19:33N 55°28' E 014°43'1212.3
2014-Nov-12 18:33N 55°34' E 015°02'1312.5
2014-Nov-12 17:31N 55°38' E 015°24'1512.5
2014-Nov-12 16:18N 55°42' E 015°50'2512.4
2014-Nov-12 14:17N 55°48' E 016°33'3812.4
2014-Nov-12 11:10N 55°59' E 017°39'  
Track history (hours):
 
Tides and Currents Weather Stations Pressure Air Temp Water Temp Dewpoint Dewpoint Depression Visibility Wind Speed Wind Dir Waves Ship Positions

Cielo Di Vaiano

Last reported at 2014-Nov-20 23:30 UTC. Time now 2014-Nov-22 03:07 UTC.
Position N 32°36' W 017°37'.

Length 183 m; draft 10.1 m.

Type: Ship (hazmat cat A). MMSI: 636015421.

Date/timePositionNaut miles runAvg speedWind from/ knotsBaromVisibWave heightAir tempDewpointWater temp
2014-Nov-20 23:30N 32°36' W 017°37'1111.7
2014-Nov-20 22:33N 32°47' W 017°32'  
2014-Nov-16 13:32N 49°59' W 002°56'1210.8
2014-Nov-16 12:27N 50°03' W 002°39'6312.6
2014-Nov-16 07:27N 50°19' W 001°04'1212.9
2014-Nov-16 06:32N 50°22' W 000°46'2512.3
2014-Nov-16 04:32N 50°29' W 000°09'1211.7
2014-Nov-16 03:32N 50°32' E 000°09'1111.6
2014-Nov-16 02:34N 50°35' E 000°26'1211.9
2014-Nov-16 01:34N 50°40' E 000°43'1212.5
2014-Nov-16 00:34N 50°46' E 000°60'1313.0
2014-Nov-15 23:33N 50°54' E 001°17'1313.1
2014-Nov-15 22:34N 51°04' E 001°31'1211.9
2014-Nov-15 21:34N 51°12' E 001°44'1111.5
2014-Nov-15 20:34N 51°22' E 001°53'1111.2
2014-Nov-15 19:34N 51°31' E 002°03'1111.0
2014-Nov-15 18:31N 51°39' E 002°16'27411.4
2014-Nov-14 18:33N 55°29' E 006°28'2211.1
2014-Nov-14 16:33N 55°50' E 006°43'1211.8
2014-Nov-14 15:34N 56°01' E 006°51'8512.1
2014-Nov-14 08:33N 57°20' E 007°46'8812.5
2014-Nov-14 01:33N 57°50' E 010°20'1313.0
2014-Nov-14 00:33N 57°51' E 010°44'1312.7
2014-Nov-13 23:33N 57°41' E 011°01'1313.1
2014-Nov-13 22:33N 57°32' E 011°18'1312.7
2014-Nov-13 21:33N 57°21' E 011°30'1313.2
2014-Nov-13 20:33N 57°09' E 011°39'4510.3
2014-Nov-13 16:09N 56°26' E 011°13'810.7
2014-Nov-13 15:24N 56°19' E 011°06'9813.3
2014-Nov-13 08:04N 54°42' E 010°52'2413.9
2014-Nov-13 06:19N 54°31' E 011°30'1013.1
2014-Nov-13 05:31N 54°27' E 011°46'1512.0
2014-Nov-13 04:15N 54°29' E 012°12'7512.1
2014-Nov-12 22:05N 55°05' E 014°06'712.6
2014-Nov-12 21:30N 55°11' E 014°13'1212.8
2014-Nov-12 20:33N 55°20' E 014°27'1212.1
2014-Nov-12 19:33N 55°28' E 014°43'1212.3
2014-Nov-12 18:33N 55°34' E 015°02'1312.5
2014-Nov-12 17:31N 55°38' E 015°24'1512.5
2014-Nov-12 16:18N 55°42' E 015°50'2512.4
2014-Nov-12 14:17N 55°48' E 016°33'3812.4
2014-Nov-12 11:10N 55°59' E 017°39'  

Dump ship's entire track history